sensor_id;sensor_type;location;lat;lon;timestamp;pressure;altitude;pressure_sealevel;temperature;humidity
10145;BME280;5113;41.822;23.564;2022-08-25T00:01:08;-11484.50;;;19.86;100.00
10145;BME280;5113;41.822;23.564;2022-08-25T00:04:17;-11490.84;;;20.09;100.00
10145;BME280;5113;41.822;23.564;2022-08-25T00:07:24;-11471.53;;;19.39;100.00
10145;BME280;5113;41.822;23.564;2022-08-25T00:10:31;-11461.78;;;19.04;100.00
10145;BME280;5113;41.822;23.564;2022-08-25T00:13:40;-11476.47;;;19.57;100.00
10145;BME280;5113;41.822;23.564;2022-08-25T00:16:47;-11479.28;;;19.67;100.00
10145;BME280;5113;41.822;23.564;2022-08-25T00:19:55;-11481.97;;;19.77;100.00
10145;BME280;5113;41.822;23.564;2022-08-25T00:23:01;-11482.94;;;19.81;100.00
10145;BME280;5113;41.822;23.564;2022-08-25T00:26:11;-11488.03;;;19.99;100.00
10145;BME280;5113;41.822;23.564;2022-08-25T00:29:18;-11483.94;;;19.84;100.00
10145;BME280;5113;41.822;23.564;2022-08-25T00:32:25;-11491.41;;;20.11;100.00
10145;BME280;5113;41.822;23.564;2022-08-25T00:35:33;-11492.53;;;20.15;100.00
10145;BME280;5113;41.822;23.564;2022-08-25T00:38:41;-11489.72;;;20.05;100.00
10145;BME280;5113;41.822;23.564;2022-08-25T00:41:49;-11490.28;;;20.07;100.00
10145;BME280;5113;41.822;23.564;2022-08-25T00:44:56;-11493.25;;;20.18;100.00
10145;BME280;5113;41.822;23.564;2022-08-25T00:48:04;-11491.25;;;20.10;100.00
10145;BME280;5113;41.822;23.564;2022-08-25T00:51:17;-11483.22;;;19.82;100.00
10145;BME280;5113;41.822;23.564;2022-08-25T00:54:29;-11479.28;;;19.67;100.00
10145;BME280;5113;41.822;23.564;2022-08-25T00:57:41;-11464.31;;;19.13;100.00
10145;BME280;5113;41.822;23.564;2022-08-25T01:00:49;-11465.72;;;19.19;100.00
10145;BME280;5113;41.822;23.564;2022-08-25T01:03:56;-11458.69;;;18.93;100.00
10145;BME280;5113;41.822;23.564;2022-08-25T01:07:05;-11469.41;;;19.32;100.00
10145;BME280;5113;41.822;23.564;2022-08-25T01:10:21;-11472.09;;;19.41;100.00
10145;BME280;5113;41.822;23.564;2022-08-25T01:13:31;-11476.75;;;19.58;100.00
10145;BME280;5113;41.822;23.564;2022-08-25T01:16:39;-11485.75;;;19.91;100.00
10145;BME280;5113;41.822;23.564;2022-08-25T01:19:47;-11471.94;;;19.41;100.00
10145;BME280;5113;41.822;23.564;2022-08-25T01:22:56;-11480.81;;;19.73;100.00
10145;BME280;5113;41.822;23.564;2022-08-25T01:26:07;-11486.31;;;19.93;100.00
10145;BME280;5113;41.822;23.564;2022-08-25T01:29:14;-11474.75;;;19.51;100.00
10145;BME280;5113;41.822;23.564;2022-08-25T01:32:32;-11482.81;;;19.80;100.00
10145;BME280;5113;41.822;23.564;2022-08-25T01:35:39;-11490.00;;;20.06;100.00
10145;BME280;5113;41.822;23.564;2022-08-25T01:38:47;-11481.97;;;19.77;100.00
10145;BME280;5113;41.822;23.564;2022-08-25T01:42:07;-11482.09;;;19.77;100.00
10145;BME280;5113;41.822;23.564;2022-08-25T01:45:15;-11480.13;;;19.70;100.00
10145;BME280;5113;41.822;23.564;2022-08-25T01:48:22;-11478.84;;;19.66;100.00
10145;BME280;5113;41.822;23.564;2022-08-25T01:51:32;-11479.41;;;19.68;100.00
10145;BME280;5113;41.822;23.564;2022-08-25T01:54:41;-11469.41;;;19.32;100.00
10145;BME280;5113;41.822;23.564;2022-08-25T01:57:47;-11471.53;;;19.39;100.00
10145;BME280;5113;41.822;23.564;2022-08-25T02:00:55;-11475.91;;;19.55;100.00
10145;BME280;5113;41.822;23.564;2022-08-25T02:04:03;-11471.94;;;19.41;100.00
10145;BME280;5113;41.822;23.564;2022-08-25T02:07:12;-11470.25;;;19.35;100.00
10145;BME280;5113;41.822;23.564;2022-08-25T02:10:19;-11473.34;;;19.46;100.00
10145;BME280;5113;41.822;23.564;2022-08-25T02:13:26;-11483.38;;;19.82;100.00
10145;BME280;5113;41.822;23.564;2022-08-25T02:16:37;-11470.53;;;19.36;100.00
10145;BME280;5113;41.822;23.564;2022-08-25T02:19:45;-11460.94;;;19.01;100.00
10145;BME280;5113;41.822;23.564;2022-08-25T02:22:51;-11454.59;;;18.78;100.00
10145;BME280;5113;41.822;23.564;2022-08-25T02:26:03;-11449.09;;;18.59;100.00
10145;BME280;5113;41.822;23.564;2022-08-25T02:29:10;-11453.63;;;18.75;100.00
10145;BME280;5113;41.822;23.564;2022-08-25T02:32:16;-11452.91;;;18.72;100.00
10145;BME280;5113;41.822;23.564;2022-08-25T02:35:22;-11461.50;;;19.03;100.00
10145;BME280;5113;41.822;23.564;2022-08-25T02:38:29;-11464.59;;;19.14;100.00
10145;BME280;5113;41.822;23.564;2022-08-25T02:41:36;-11478.44;;;19.64;100.00
10145;BME280;5113;41.822;23.564;2022-08-25T02:44:44;-11479.28;;;19.67;100.00
10145;BME280;5113;41.822;23.564;2022-08-25T02:47:50;-11475.34;;;19.53;100.00
10145;BME280;5113;41.822;23.564;2022-08-25T02:50:59;-11472.09;;;19.41;100.00
10145;BME280;5113;41.822;23.564;2022-08-25T02:54:06;-11478.00;;;19.63;100.00
10145;BME280;5113;41.822;23.564;2022-08-25T02:57:14;-11485.34;;;19.89;100.00
10145;BME280;5113;41.822;23.564;2022-08-25T03:00:22;-11476.59;;;19.58;100.00
10145;BME280;5113;41.822;23.564;2022-08-25T03:03:28;-11474.91;;;19.52;100.00
10145;BME280;5113;41.822;23.564;2022-08-25T03:06:35;-11472.78;;;19.44;100.00
10145;BME280;5113;41.822;23.564;2022-08-25T03:09:42;-11476.75;;;19.58;100.00
10145;BME280;5113;41.822;23.564;2022-08-25T03:12:50;-11478.72;;;19.65;100.00
10145;BME280;5113;41.822;23.564;2022-08-25T03:15:57;-11471.66;;;19.40;100.00
10145;BME280;5113;41.822;23.564;2022-08-25T03:19:04;-11469.13;;;19.31;100.00
10145;BME280;5113;41.822;23.564;2022-08-25T03:22:11;-11470.53;;;19.36;100.00
10145;BME280;5113;41.822;23.564;2022-08-25T03:25:18;-11480.69;;;19.72;100.00
10145;BME280;5113;41.822;23.564;2022-08-25T03:28:44;-11474.75;;;19.51;100.00
10145;BME280;5113;41.822;23.564;2022-08-25T03:31:50;-11481.53;;;19.75;100.00
10145;BME280;5113;41.822;23.564;2022-08-25T03:34:57;-11476.19;;;19.56;100.00
10145;BME280;5113;41.822;23.564;2022-08-25T03:38:05;-11471.09;;;19.38;100.00
10145;BME280;5113;41.822;23.564;2022-08-25T03:41:14;-11469.41;;;19.32;100.00
10145;BME280;5113;41.822;23.564;2022-08-25T03:44:22;-11466.59;;;19.22;100.00
10145;BME280;5113;41.822;23.564;2022-08-25T03:47:28;-11467.16;;;19.24;100.00
10145;BME280;5113;41.822;23.564;2022-08-25T03:50:35;-11467.16;;;19.24;100.00
10145;BME280;5113;41.822;23.564;2022-08-25T03:53:42;-11467.72;;;19.26;100.00
10145;BME280;5113;41.822;23.564;2022-08-25T03:56:48;-11465.31;;;19.17;100.00
10145;BME280;5113;41.822;23.564;2022-08-25T03:59:56;-11466.44;;;19.21;100.00
10145;BME280;5113;41.822;23.564;2022-08-25T04:03:03;-11465.16;;;19.17;100.00
10145;BME280;5113;41.822;23.564;2022-08-25T04:06:09;-11462.63;;;19.07;100.00
10145;BME280;5113;41.822;23.564;2022-08-25T04:09:16;-11469.69;;;19.33;100.00
10145;BME280;5113;41.822;23.564;2022-08-25T04:12:22;-11467.44;;;19.25;100.00
10145;BME280;5113;41.822;23.564;2022-08-25T04:15:30;-11455.31;;;18.81;100.00
10145;BME280;5113;41.822;23.564;2022-08-25T04:18:37;-11473.22;;;19.45;100.00
10145;BME280;5113;41.822;23.564;2022-08-25T04:21:43;-11471.66;;;19.40;100.00
10145;BME280;5113;41.822;23.564;2022-08-25T04:24:50;-11472.78;;;19.44;100.00
10145;BME280;5113;41.822;23.564;2022-08-25T04:27:56;-11475.34;;;19.53;100.00
10145;BME280;5113;41.822;23.564;2022-08-25T04:31:06;-11474.34;;;19.50;100.00
10145;BME280;5113;41.822;23.564;2022-08-25T04:34:13;-11476.59;;;19.58;100.00
10145;BME280;5113;41.822;23.564;2022-08-25T04:37:34;-11486.59;;;19.94;100.00
10145;BME280;5113;41.822;23.564;2022-08-25T04:40:41;-11481.53;;;19.75;100.00
10145;BME280;5113;41.822;23.564;2022-08-25T04:43:48;-11480.13;;;19.70;100.00
10145;BME280;5113;41.822;23.564;2022-08-25T04:46:55;-11485.19;;;19.89;100.00
10145;BME280;5113;41.822;23.564;2022-08-25T04:50:01;-11486.31;;;19.93;100.00
10145;BME280;5113;41.822;23.564;2022-08-25T04:53:08;-11486.75;;;19.94;100.00
10145;BME280;5113;41.822;23.564;2022-08-25T04:56:16;-11493.94;;;20.20;100.00
10145;BME280;5113;41.822;23.564;2022-08-25T04:59:23;-11498.75;;;20.37;100.00
10145;BME280;5113;41.822;23.564;2022-08-25T05:02:34;-11498.44;;;20.36;100.00
10145;BME280;5113;41.822;23.564;2022-08-25T05:05:41;-11501.84;;;20.49;100.00
10145;BME280;5113;41.822;23.564;2022-08-25T05:08:47;-11505.38;;;20.61;100.00
10145;BME280;5113;41.822;23.564;2022-08-25T05:11:53;-11506.78;;;20.66;100.00
10145;BME280;5113;41.822;23.564;2022-08-25T05:15:00;-11503.69;;;20.55;100.00
10145;BME280;5113;41.822;23.564;2022-08-25T05:18:29;-11509.47;;;20.76;100.00
10145;BME280;5113;41.822;23.564;2022-08-25T05:21:35;-11512.28;;;20.86;100.00
10145;BME280;5113;41.822;23.564;2022-08-25T05:24:42;-11519.06;;;21.10;100.00
10145;BME280;5113;41.822;23.564;2022-08-25T05:27:48;-11508.47;;;20.72;100.00
10145;BME280;5113;41.822;23.564;2022-08-25T05:30:57;-11514.97;;;20.96;100.00
10145;BME280;5113;41.822;23.564;2022-08-25T05:34:06;-11526.66;;;21.38;100.00
10145;BME280;5113;41.822;23.564;2022-08-25T05:37:13;-11512.84;;;20.88;100.00
10145;BME280;5113;41.822;23.564;2022-08-25T05:40:19;-11525.53;;;21.34;100.00
10145;BME280;5113;41.822;23.564;2022-08-25T05:43:26;-11534.00;;;21.64;100.00
10145;BME280;5113;41.822;23.564;2022-08-25T05:46:32;-11522.72;;;21.24;100.00
10145;BME280;5113;41.822;23.564;2022-08-25T05:49:40;-11526.94;;;21.39;100.00
10145;BME280;5113;41.822;23.564;2022-08-25T05:52:46;-11519.19;;;21.11;100.00
10145;BME280;5113;41.822;23.564;2022-08-25T05:55:54;-11535.56;;;21.70;100.00
10145;BME280;5113;41.822;23.564;2022-08-25T05:59:01;-11537.97;;;21.79;100.00
10145;BME280;5113;41.822;23.564;2022-08-25T06:02:12;-11534.28;;;21.65;100.00
10145;BME280;5113;41.822;23.564;2022-08-25T06:05:38;-11523.84;;;21.28;100.00
10145;BME280;5113;41.822;23.564;2022-08-25T06:08:45;-11551.50;;;22.27;100.00
10145;BME280;5113;41.822;23.564;2022-08-25T06:11:52;-11565.63;;;22.78;100.00
10145;BME280;5113;41.822;23.564;2022-08-25T06:14:59;-11564.50;;;22.74;100.00
10145;BME280;5113;41.822;23.564;2022-08-25T06:18:05;-11563.06;;;22.69;100.00
10145;BME280;5113;41.822;23.564;2022-08-25T06:21:14;-11576.06;;;23.16;100.00
10145;BME280;5113;41.822;23.564;2022-08-25T06:24:21;-11575.22;;;23.13;100.00
10145;BME280;5113;41.822;23.564;2022-08-25T06:27:27;-11559.13;;;22.55;100.00
10145;BME280;5113;41.822;23.564;2022-08-25T06:30:33;-11557.44;;;22.49;100.00
10145;BME280;5113;41.822;23.564;2022-08-25T06:33:40;-11562.22;;;22.66;100.00
10145;BME280;5113;41.822;23.564;2022-08-25T06:36:47;-11571.41;;;22.99;100.00
10145;BME280;5113;41.822;23.564;2022-08-25T06:39:54;-11566.47;;;22.81;100.00
10145;BME280;5113;41.822;23.564;2022-08-25T06:43:00;-11565.75;;;22.79;100.00
10145;BME280;5113;41.822;23.564;2022-08-25T06:46:11;-11566.47;;;22.81;100.00
10145;BME280;5113;41.822;23.564;2022-08-25T06:49:17;-11571.84;;;23.00;100.00
10145;BME280;5113;41.822;23.564;2022-08-25T06:52:25;-11553.06;;;22.33;100.00
10145;BME280;5113;41.822;23.564;2022-08-25T06:55:33;-11564.06;;;22.72;100.00
10145;BME280;5113;41.822;23.564;2022-08-25T06:58:40;-11574.38;;;23.10;100.00
10145;BME280;5113;41.822;23.564;2022-08-25T07:01:46;-11574.38;;;23.10;100.00
10145;BME280;5113;41.822;23.564;2022-08-25T07:08:03;-11548.97;;;22.18;100.00
10145;BME280;5113;41.822;23.564;2022-08-25T07:11:10;-11561.09;;;22.62;100.00
10145;BME280;5113;41.822;23.564;2022-08-25T07:14:21;-11580.72;;;23.32;100.00
10145;BME280;5113;41.822;23.564;2022-08-25T07:17:27;-11556.72;;;22.46;100.00
10145;BME280;5113;41.822;23.564;2022-08-25T07:20:34;-11584.25;;;23.45;100.00
10145;BME280;5113;41.822;23.564;2022-08-25T07:23:42;-11574.78;;;23.11;100.00
10145;BME280;5113;41.822;23.564;2022-08-25T07:26:48;-11565.63;;;22.78;100.00
10145;BME280;5113;41.822;23.564;2022-08-25T07:29:56;-11587.94;;;23.58;100.00
10145;BME280;5113;41.822;23.564;2022-08-25T07:33:02;-11558.00;;;22.51;100.00
10145;BME280;5113;41.822;23.564;2022-08-25T07:36:11;-11577.34;;;23.20;100.00
10145;BME280;5113;41.822;23.564;2022-08-25T07:39:18;-11576.34;;;23.17;100.00
10145;BME280;5113;41.822;23.564;2022-08-25T07:42:25;-11581.28;;;23.34;100.00
10145;BME280;5113;41.822;23.564;2022-08-25T07:45:33;-11599.78;;;24.01;100.00
10145;BME280;5113;41.822;23.564;2022-08-25T07:48:50;-11587.94;;;23.58;100.00
10145;BME280;5113;41.822;23.564;2022-08-25T07:51:57;-11589.63;;;23.64;98.07
10145;BME280;5113;41.822;23.564;2022-08-25T07:55:11;-11562.22;;;22.66;100.00
10145;BME280;5113;41.822;23.564;2022-08-25T07:58:21;-11572.53;;;23.03;100.00
10145;BME280;5113;41.822;23.564;2022-08-25T08:01:27;-11576.75;;;23.18;100.00
10145;BME280;5113;41.822;23.564;2022-08-25T08:04:35;-11576.19;;;23.16;100.00
10145;BME280;5113;41.822;23.564;2022-08-25T08:07:44;-11570.69;;;22.96;100.00
10145;BME280;5113;41.822;23.564;2022-08-25T08:10:52;-11586.09;;;23.52;99.74
10145;BME280;5113;41.822;23.564;2022-08-25T08:14:14;-11613.47;;;24.50;97.13
10145;BME280;5113;41.822;23.564;2022-08-25T08:17:21;-11617.44;;;24.64;95.46
10145;BME280;5113;41.822;23.564;2022-08-25T08:20:28;-11595.41;;;23.85;94.63
10145;BME280;5113;41.822;23.564;2022-08-25T08:23:46;-11615.31;;;24.57;95.40
10145;BME280;5113;41.822;23.564;2022-08-25T08:26:54;-11600.34;;;24.03;91.62
10145;BME280;5113;41.822;23.564;2022-08-25T08:30:03;-11585.38;;;23.49;93.07
10145;BME280;5113;41.822;23.564;2022-08-25T08:33:10;-11599.50;;;24.00;89.24
10145;BME280;5113;41.822;23.564;2022-08-25T08:36:17;-11625.31;;;24.93;87.93
10145;BME280;5113;41.822;23.564;2022-08-25T08:39:24;-11610.38;;;24.39;93.91
10145;BME280;5113;41.822;23.564;2022-08-25T08:42:46;-11603.44;;;24.14;94.11
10145;BME280;5113;41.822;23.564;2022-08-25T08:45:56;-11605.72;;;24.22;93.68
10145;BME280;5113;41.822;23.564;2022-08-25T08:49:05;-11605.72;;;24.22;98.35
10145;BME280;5113;41.822;23.564;2022-08-25T08:52:21;-11629.72;;;25.09;91.96
10145;BME280;5113;41.822;23.564;2022-08-25T08:55:37;-11623.34;;;24.86;92.41
10145;BME280;5113;41.822;23.564;2022-08-25T08:58:49;-11641.28;;;25.50;89.32
10145;BME280;5113;41.822;23.564;2022-08-25T09:01:58;-11634.50;;;25.26;91.68
10145;BME280;5113;41.822;23.564;2022-08-25T09:05:08;-11653.44;;;25.94;88.64
10145;BME280;5113;41.822;23.564;2022-08-25T09:08:16;-11652.88;;;25.92;92.35
10145;BME280;5113;41.822;23.564;2022-08-25T09:11:45;-11627.16;;;24.99;91.71
10145;BME280;5113;41.822;23.564;2022-08-25T09:15:07;-11657.81;;;26.10;86.46
10145;BME280;5113;41.822;23.564;2022-08-25T09:18:24;-11679.13;;;26.86;82.46
10145;BME280;5113;41.822;23.564;2022-08-25T09:21:34;-11663.03;;;26.28;84.36
10145;BME280;5113;41.822;23.564;2022-08-25T09:24:55;-11680.97;;;26.93;83.41
10145;BME280;5113;41.822;23.564;2022-08-25T09:28:18;-11660.63;;;26.20;81.64
10145;BME280;5113;41.822;23.564;2022-08-25T09:31:31;-11673.19;;;26.65;79.38
10145;BME280;5113;41.822;23.564;2022-08-25T09:34:37;-11669.38;;;26.51;74.94
10145;BME280;5113;41.822;23.564;2022-08-25T09:37:54;-11702.31;;;27.70;70.74
10145;BME280;5113;41.822;23.564;2022-08-25T09:41:02;-11692.53;;;27.35;67.86
10145;BME280;5113;41.822;23.564;2022-08-25T09:44:17;-11721.94;;;28.40;59.90
10145;BME280;5113;41.822;23.564;2022-08-25T09:47:26;-11709.63;;;27.96;55.74
10145;BME280;5113;41.822;23.564;2022-08-25T09:50:32;-11714.72;;;28.14;59.22
10145;BME280;5113;41.822;23.564;2022-08-25T09:53:42;-11734.22;;;28.84;55.24
10145;BME280;5113;41.822;23.564;2022-08-25T09:56:52;-11735.34;;;28.88;55.83
10145;BME280;5113;41.822;23.564;2022-08-25T10:00:12;-11747.34;;;29.32;56.47
10145;BME280;5113;41.822;23.564;2022-08-25T10:03:21;-11732.53;;;28.78;56.46
10145;BME280;5113;41.822;23.564;2022-08-25T10:06:33;-11746.38;;;29.28;56.19
10145;BME280;5113;41.822;23.564;2022-08-25T10:09:42;-11725.19;;;28.52;59.66
10145;BME280;5113;41.822;23.564;2022-08-25T10:12:49;-11740.16;;;29.06;55.56
10145;BME280;5113;41.822;23.564;2022-08-25T10:16:03;-11738.75;;;29.01;55.80
10145;BME280;5113;41.822;23.564;2022-08-25T10:19:27;-11743.69;;;29.18;54.15
10145;BME280;5113;41.822;23.564;2022-08-25T10:22:34;-11733.53;;;28.82;48.79
10145;BME280;5113;41.822;23.564;2022-08-25T10:25:44;-11760.22;;;29.78;49.92
10145;BME280;5113;41.822;23.564;2022-08-25T10:29:19;-11774.63;;;30.30;50.76
10145;BME280;5113;41.822;23.564;2022-08-25T10:32:44;-11732.25;;;28.77;52.04
10145;BME280;5113;41.822;23.564;2022-08-25T10:35:59;-11735.63;;;28.89;54.04
10145;BME280;5113;41.822;23.564;2022-08-25T10:39:16;-11748.91;;;29.37;55.33
10145;BME280;5113;41.822;23.564;2022-08-25T10:42:47;-11778.31;;;30.43;46.92
10145;BME280;5113;41.822;23.564;2022-08-25T10:46:03;-11777.44;;;30.40;45.62
10145;BME280;5113;41.822;23.564;2022-08-25T10:49:17;-11772.66;;;30.22;45.39
10145;BME280;5113;41.822;23.564;2022-08-25T10:52:35;-11748.34;;;29.35;44.53
10145;BME280;5113;41.822;23.564;2022-08-25T10:55:51;-11749.19;;;29.38;47.58
10145;BME280;5113;41.822;23.564;2022-08-25T10:59:19;-11718.25;;;28.27;50.33
10145;BME280;5113;41.822;23.564;2022-08-25T11:02:48;-11735.34;;;28.88;51.83
10145;BME280;5113;41.822;23.564;2022-08-25T11:06:05;-11727.88;;;28.62;50.52
10145;BME280;5113;41.822;23.564;2022-08-25T11:09:18;-11726.88;;;28.58;52.73
10145;BME280;5113;41.822;23.564;2022-08-25T11:12:30;-11745.53;;;29.25;46.27
10145;BME280;5113;41.822;23.564;2022-08-25T11:15:42;-11780.28;;;30.50;46.71
10145;BME280;5113;41.822;23.564;2022-08-25T11:19:16;-11762.75;;;29.87;44.81
10145;BME280;5113;41.822;23.564;2022-08-25T11:22:28;-11744.38;;;29.21;45.12
10145;BME280;5113;41.822;23.564;2022-08-25T11:25:41;-11755.84;;;29.62;46.10
10145;BME280;5113;41.822;23.564;2022-08-25T11:28:55;-11762.75;;;29.87;45.98
10145;BME280;5113;41.822;23.564;2022-08-25T11:32:04;-11773.06;;;30.24;44.91
10145;BME280;5113;41.822;23.564;2022-08-25T11:35:12;-11791.03;;;30.88;43.62
10145;BME280;5113;41.822;23.564;2022-08-25T11:38:27;-11795.53;;;31.05;42.92
10145;BME280;5113;41.822;23.564;2022-08-25T11:41:49;-11767.00;;;30.02;43.33
10145;BME280;5113;41.822;23.564;2022-08-25T11:45:06;-11792.56;;;30.94;41.17
10145;BME280;5113;41.822;23.564;2022-08-25T11:48:27;-11761.34;;;29.82;42.64
10145;BME280;5113;41.822;23.564;2022-08-25T11:51:41;-11801.91;;;31.28;44.50
10145;BME280;5113;41.822;23.564;2022-08-25T11:54:49;-11770.38;;;30.14;46.27
10145;BME280;5113;41.822;23.564;2022-08-25T11:58:22;-11763.31;;;29.89;45.30
10145;BME280;5113;41.822;23.564;2022-08-25T12:02:07;-11779.28;;;30.46;45.95
10145;BME280;5113;41.822;23.564;2022-08-25T12:05:51;-11793.28;;;30.97;43.61
10145;BME280;5113;41.822;23.564;2022-08-25T12:09:20;-11788.47;;;30.79;42.47
10145;BME280;5113;41.822;23.564;2022-08-25T12:12:29;-11768.84;;;30.09;46.97
10145;BME280;5113;41.822;23.564;2022-08-25T12:15:55;-11781.13;;;30.53;45.43
10145;BME280;5113;41.822;23.564;2022-08-25T12:19:23;-11746.66;;;29.29;45.71
10145;BME280;5113;41.822;23.564;2022-08-25T12:22:55;-11764.75;;;29.94;41.14
10145;BME280;5113;41.822;23.564;2022-08-25T12:26:08;-11746.38;;;29.28;44.33
10145;BME280;5113;41.822;23.564;2022-08-25T12:29:37;-11726.72;;;28.57;42.85
10145;BME280;5113;41.822;23.564;2022-08-25T12:32:59;-11736.75;;;28.93;44.50
10145;BME280;5113;41.822;23.564;2022-08-25T12:36:09;-11737.31;;;28.96;44.71
10145;BME280;5113;41.822;23.564;2022-08-25T12:39:19;-11735.63;;;28.89;48.13
10145;BME280;5113;41.822;23.564;2022-08-25T12:42:32;-11745.25;;;29.24;47.50
10145;BME280;5113;41.822;23.564;2022-08-25T12:45:43;-11750.34;;;29.42;46.37
10145;BME280;5113;41.822;23.564;2022-08-25T12:48:55;-11744.97;;;29.23;44.18
10145;BME280;5113;41.822;23.564;2022-08-25T12:52:05;-11759.09;;;29.74;44.08
10145;BME280;5113;41.822;23.564;2022-08-25T12:55:15;-11752.59;;;29.50;44.52
10145;BME280;5113;41.822;23.564;2022-08-25T12:58:33;-11758.66;;;29.72;41.67
10145;BME280;5113;41.822;23.564;2022-08-25T13:02:14;-11782.81;;;30.59;43.20
10145;BME280;5113;41.822;23.564;2022-08-25T13:05:46;-11752.44;;;29.50;47.52
10145;BME280;5113;41.822;23.564;2022-08-25T13:12:58;-11719.94;;;28.33;44.67
10145;BME280;5113;41.822;23.564;2022-08-25T13:16:15;-11730.81;;;28.72;44.39
10145;BME280;5113;41.822;23.564;2022-08-25T13:19:23;-11739.59;;;29.04;43.31
10145;BME280;5113;41.822;23.564;2022-08-25T13:22:30;-11747.22;;;29.31;46.71
10145;BME280;5113;41.822;23.564;2022-08-25T13:25:47;-11756.25;;;29.64;44.31
10145;BME280;5113;41.822;23.564;2022-08-25T13:28:57;-11743.13;;;29.16;47.75
10145;BME280;5113;41.822;23.564;2022-08-25T13:32:17;-11737.47;;;28.96;43.92
10145;BME280;5113;41.822;23.564;2022-08-25T13:35:35;-11731.97;;;28.76;45.31
10145;BME280;5113;41.822;23.564;2022-08-25T13:38:43;-11750.47;;;29.43;43.70
10145;BME280;5113;41.822;23.564;2022-08-25T13:41:53;-11768.28;;;30.07;42.31
10145;BME280;5113;41.822;23.564;2022-08-25T13:45:13;-11788.19;;;30.78;43.48
10145;BME280;5113;41.822;23.564;2022-08-25T13:48:33;-11790.16;;;30.85;41.39
10145;BME280;5113;41.822;23.564;2022-08-25T13:51:50;-11773.22;;;30.25;43.66
10145;BME280;5113;41.822;23.564;2022-08-25T13:54:58;-11769.25;;;30.10;42.46
10145;BME280;5113;41.822;23.564;2022-08-25T13:58:12;-11770.09;;;30.13;40.82
10145;BME280;5113;41.822;23.564;2022-08-25T14:01:30;-11772.22;;;30.21;43.94
10145;BME280;5113;41.822;23.564;2022-08-25T14:04:55;-11791.88;;;30.92;44.04
10145;BME280;5113;41.822;23.564;2022-08-25T14:08:02;-11801.47;;;31.26;42.58
10145;BME280;5113;41.822;23.564;2022-08-25T14:11:28;-11797.94;;;31.13;43.09
10145;BME280;5113;41.822;23.564;2022-08-25T14:14:35;-11800.34;;;31.22;41.13
10145;BME280;5113;41.822;23.564;2022-08-25T14:17:43;-11782.25;;;30.57;40.11
10145;BME280;5113;41.822;23.564;2022-08-25T14:20:57;-11795.41;;;31.04;42.49
10145;BME280;5113;41.822;23.564;2022-08-25T14:24:04;-11792.44;;;30.94;42.46
10145;BME280;5113;41.822;23.564;2022-08-25T14:27:14;-11786.50;;;30.72;40.41
10145;BME280;5113;41.822;23.564;2022-08-25T14:30:23;-11789.03;;;30.81;41.60
10145;BME280;5113;41.822;23.564;2022-08-25T14:33:36;-11785.09;;;30.67;43.29
10145;BME280;5113;41.822;23.564;2022-08-25T14:36:44;-11795.13;;;31.03;40.51
10145;BME280;5113;41.822;23.564;2022-08-25T14:39:52;-11800.91;;;31.24;38.37
10145;BME280;5113;41.822;23.564;2022-08-25T14:42:58;-11788.06;;;30.78;42.82
10145;BME280;5113;41.822;23.564;2022-08-25T14:46:13;-11796.66;;;31.09;39.31
10145;BME280;5113;41.822;23.564;2022-08-25T14:49:24;-11797.81;;;31.13;40.44
10145;BME280;5113;41.822;23.564;2022-08-25T14:52:34;-11783.94;;;30.63;42.40
10145;BME280;5113;41.822;23.564;2022-08-25T14:55:41;-11785.22;;;30.68;43.44
10145;BME280;5113;41.822;23.564;2022-08-25T14:58:48;-11770.25;;;30.14;44.38
10145;BME280;5113;41.822;23.564;2022-08-25T15:01:58;-11763.03;;;29.88;46.08
10145;BME280;5113;41.822;23.564;2022-08-25T15:05:05;-11762.06;;;29.84;43.56
10145;BME280;5113;41.822;23.564;2022-08-25T15:08:17;-11758.53;;;29.72;42.91
10145;BME280;5113;41.822;23.564;2022-08-25T15:11:43;-11748.06;;;29.34;45.99
10145;BME280;5113;41.822;23.564;2022-08-25T15:14:50;-11739.03;;;29.02;46.14
10145;BME280;5113;41.822;23.564;2022-08-25T15:17:57;-11745.38;;;29.24;44.28
10145;BME280;5113;41.822;23.564;2022-08-25T15:21:05;-11741.44;;;29.10;47.21
10145;BME280;5113;41.822;23.564;2022-08-25T15:24:14;-11736.06;;;28.91;47.42
10145;BME280;5113;41.822;23.564;2022-08-25T15:27:22;-11729.69;;;28.68;47.55
10145;BME280;5113;41.822;23.564;2022-08-25T15:30:34;-11727.28;;;28.59;46.58
10145;BME280;5113;41.822;23.564;2022-08-25T15:33:41;-11728.84;;;28.65;46.79
10145;BME280;5113;41.822;23.564;2022-08-25T15:36:48;-11734.22;;;28.84;45.63
10145;BME280;5113;41.822;23.564;2022-08-25T15:39:56;-11722.34;;;28.42;47.75
10145;BME280;5113;41.822;23.564;2022-08-25T15:43:02;-11724.91;;;28.51;49.39
10145;BME280;5113;41.822;23.564;2022-08-25T15:46:14;-11708.50;;;27.92;50.67
10145;BME280;5113;41.822;23.564;2022-08-25T15:49:22;-11713.31;;;28.09;52.11
10145;BME280;5113;41.822;23.564;2022-08-25T15:52:33;-11703.16;;;27.73;51.58
10145;BME280;5113;41.822;23.564;2022-08-25T15:55:53;-11695.66;;;27.46;54.89
10145;BME280;5113;41.822;23.564;2022-08-25T15:59:05;-11701.88;;;27.68;53.65
10145;BME280;5113;41.822;23.564;2022-08-25T16:02:12;-11696.06;;;27.47;54.12
10145;BME280;5113;41.822;23.564;2022-08-25T16:05:19;-11698.91;;;27.57;55.35
10145;BME280;5113;41.822;23.564;2022-08-25T16:08:29;-11688.03;;;27.18;57.14
10145;BME280;5113;41.822;23.564;2022-08-25T16:11:38;-11684.66;;;27.06;54.99
10145;BME280;5113;41.822;23.564;2022-08-25T16:14:47;-11676.59;;;26.77;59.45
10145;BME280;5113;41.822;23.564;2022-08-25T16:17:57;-11674.03;;;26.68;60.34
10145;BME280;5113;41.822;23.564;2022-08-25T16:21:08;-11664.44;;;26.34;63.15
10145;BME280;5113;41.822;23.564;2022-08-25T16:24:16;-11668.69;;;26.49;62.86
10145;BME280;5113;41.822;23.564;2022-08-25T16:27:24;-11670.09;;;26.54;61.99
10145;BME280;5113;41.822;23.564;2022-08-25T16:30:44;-11666.16;;;26.40;61.11
10145;BME280;5113;41.822;23.564;2022-08-25T16:33:56;-11665.56;;;26.38;61.80
10145;BME280;5113;41.822;23.564;2022-08-25T16:37:03;-11652.59;;;25.91;66.43
10145;BME280;5113;41.822;23.564;2022-08-25T16:40:11;-11645.38;;;25.65;65.39